Time;durP1;ratioP1;P1;durP2;ratioP2;P2;SDS_P1;SDS_P2;PMS_P1;PMS_P2;Temp;Humidity;BMP_temperature;BMP_pressure;BME280_temperature;BME280_humidity;BME280_pressure;Samples;Min_cycle;Max_cycle;Signal;HPM_P1;HPM_P2
2021/09/28 00:00:37;;;;;;;;;;;11.10;94.50;;;;;;5014501;28;19960;-87
2021/09/28 00:03:03;;;;;;;;;;;11.00;93.00;;;;;;5012750;28;19910;-87
2021/09/28 00:05:29;;;;;;;;;;;10.90;94.40;;;;;;5012844;28;19917;-88
2021/09/28 00:07:55;;;;;;;;;;;10.80;95.10;;;;;;5012735;28;19910;-87
2021/09/28 00:10:20;;;;;;;;;;;10.80;94.90;;;;;;5014066;28;20315;-87
2021/09/28 00:12:46;;;;;;;;;;;10.80;94.90;;;;;;5014130;28;20008;-85
2021/09/28 00:15:12;;;;;;;;;;;10.70;95.10;;;;;;5026156;22;19925;-87
2021/09/28 00:17:38;;;;;;;;;;;10.60;96.00;;;;;;5014240;28;19910;-87
2021/09/28 00:20:05;;;;;;;;;;;10.50;96.70;;;;;;5014308;28;19917;-87
2021/09/28 00:22:31;;;;;;;;;;;10.40;97.20;;;;;;5013873;28;19909;-86
2021/09/28 00:24:56;;;;;;;;;;;10.40;97.60;;;;;;5014101;28;19991;-87
2021/09/28 00:27:22;;;;;;;;;;;10.30;98.10;;;;;;5013997;28;19917;-87
2021/09/28 00:29:47;;;;;;;;;;;10.20;96.60;;;;;;5012569;28;19918;-87
2021/09/28 00:32:13;;;;;;;;;;;10.10;97.80;;;;;;5012530;28;19917;-87
2021/09/28 00:34:40;;;;;;;;;;;10.00;98.20;;;;;;5012515;28;19917;-87
2021/09/28 00:37:06;;;;;;;;;;;10.00;96.40;;;;;;5012508;28;19909;-86
2021/09/28 00:39:31;;;;;;;;;;;9.80;98.40;;;;;;5012309;28;19921;-86
2021/09/28 00:41:57;;;;;;;;;;;9.70;99.20;;;;;;5012508;28;19914;-87
2021/09/28 00:44:43;;;;;;;;;;;9.60;99.50;;;;;;5012373;28;20355;-87
2021/09/28 00:47:10;;;;;;;;;;;9.60;99.60;;;;;;5012369;28;19921;-87
2021/09/28 00:49:43;;;;;;;;;;;9.50;99.90;;;;;;5012241;28;19918;-87
2021/09/28 00:52:09;;;;;;;;;;;9.50;99.90;;;;;;5012219;28;19924;-87
2021/09/28 00:54:37;;;;;;;;;;;9.40;99.90;;;;;;5013415;28;19914;-87
2021/09/28 00:57:04;;;;;;;;;;;9.30;99.90;;;;;;5012447;28;19944;-87
2021/09/28 00:59:30;;;;;;;;;;;9.30;99.90;;;;;;5012191;28;19920;-88
2021/09/28 01:01:55;;;;;;;;;;;9.20;99.90;;;;;;5012305;28;19913;-87
2021/09/28 01:04:21;;;;;;;;;;;9.20;99.90;;;;;;5013497;28;19925;-85
2021/09/28 01:06:47;;;;;;;;;;;9.20;99.90;;;;;;5013434;28;19918;-86
2021/09/28 01:09:12;;;;;;;;;;;9.20;99.90;;;;;;5012258;28;19956;-87
2021/09/28 01:11:41;;;;;;;;;;;9.10;99.90;;;;;;5015755;28;20384;-87
2021/09/28 01:14:07;;;;;;;;;;;9.00;99.90;;;;;;5015781;28;19914;-87
2021/09/28 01:16:34;;;;;;;;;;;9.00;99.90;;;;;;5029475;23;19948;-87
2021/09/28 01:18:59;;;;;;;;;;;9.00;99.90;;;;;;5017697;28;19940;-87
2021/09/28 01:21:25;;;;;;;;;;;9.00;99.90;;;;;;5018403;28;19921;-88
2021/09/28 01:23:51;;;;;;;;;;;8.90;99.90;;;;;;5019507;28;19917;-86
2021/09/28 01:26:17;;;;;;;;;;;8.90;99.90;;;;;;5018042;28;20378;-87
2021/09/28 01:28:46;;;;;;;;;;;8.80;99.90;;;;;;5016264;28;20323;-87
2021/09/28 01:31:12;;;;;;;;;;;8.80;99.90;;;;;;5016463;28;20300;-88
2021/09/28 01:33:38;;;;;;;;;;;8.80;99.90;;;;;;5016036;28;19963;-87
2021/09/28 01:36:03;;;;;;;;;;;8.80;99.90;;;;;;5017731;28;19917;-87
2021/09/28 01:38:29;;;;;;;;;;;8.70;99.90;;;;;;5015908;28;19932;-87
2021/09/28 01:40:55;;;;;;;;;;;8.70;99.90;;;;;;5016629;28;20156;-87
2021/09/28 01:43:20;;;;;;;;;;;8.70;99.90;;;;;;5016066;28;20399;-87
2021/09/28 01:45:47;;;;;;;;;;;8.70;99.90;;;;;;5016091;28;20334;-87
2021/09/28 01:48:13;;;;;;;;;;;8.60;99.90;;;;;;5017508;28;19910;-87
2021/09/28 01:50:39;;;;;;;;;;;8.60;99.90;;;;;;5015719;28;19922;-87
2021/09/28 01:53:04;;;;;;;;;;;8.60;99.90;;;;;;5015886;28;19909;-87
2021/09/28 01:55:30;;;;;;;;;;;8.50;99.90;;;;;;5017109;28;19918;-87
2021/09/28 01:57:56;;;;;;;;;;;8.50;99.90;;;;;;5015665;28;19916;-87
2021/09/28 02:00:22;;;;;;;;;;;8.40;99.90;;;;;;5015706;28;19917;-86
2021/09/28 02:02:48;;;;;;;;;;;8.40;99.90;;;;;;5015395;28;19909;-87
2021/09/28 02:05:13;;;;;;;;;;;8.40;99.90;;;;;;5015199;28;20286;-87
2021/09/28 02:07:39;;;;;;;;;;;8.40;99.90;;;;;;5016480;28;20439;-87
2021/09/28 02:10:05;;;;;;;;;;;8.40;99.90;;;;;;5016753;28;19928;-87
2021/09/28 02:12:30;;;;;;;;;;;8.30;99.90;;;;;;5015238;28;19917;-85
2021/09/28 02:14:56;;;;;;;;;;;8.30;99.90;;;;;;5027832;22;19917;-87
2021/09/28 02:17:21;;;;;;;;;;;8.20;99.90;;;;;;5015350;28;19918;-87
2021/09/28 02:19:47;;;;;;;;;;;8.20;99.90;;;;;;5011437;28;20008;-87
2021/09/28 02:22:13;;;;;;;;;;;8.20;99.90;;;;;;5016085;28;20013;-88
2021/09/28 02:24:38;;;;;;;;;;;8.20;99.90;;;;;;5016290;28;20012;-87
2021/09/28 02:27:04;;;;;;;;;;;8.10;99.90;;;;;;5016230;28;19913;-87
2021/09/28 02:29:29;;;;;;;;;;;8.10;99.90;;;;;;5016176;28;19925;-87
2021/09/28 02:31:55;;;;;;;;;;;8.10;99.90;;;;;;5014675;28;19936;-87
2021/09/28 02:34:20;;;;;;;;;;;8.10;99.90;;;;;;5015748;28;19925;-86
2021/09/28 02:36:46;;;;;;;;;;;8.00;99.90;;;;;;5016024;28;19910;-87
2021/09/28 02:39:12;;;;;;;;;;;8.00;99.90;;;;;;5014577;28;20008;-87
2021/09/28 02:41:37;;;;;;;;;;;8.00;99.90;;;;;;5014434;28;19909;-87
2021/09/28 02:44:04;;;;;;;;;;;8.00;99.90;;;;;;5014357;28;19909;-87
2021/09/28 02:46:29;;;;;;;;;;;8.00;99.90;;;;;;5014570;28;19948;-85
2021/09/28 02:48:55;;;;;;;;;;;7.90;99.90;;;;;;5014181;28;19952;-87
2021/09/28 02:51:21;;;;;;;;;;;7.90;99.90;;;;;;5016039;28;20012;-87
2021/09/28 02:53:46;;;;;;;;;;;7.80;99.90;;;;;;5014783;28;20455;-87
2021/09/28 02:56:12;;;;;;;;;;;7.80;99.90;;;;;;5016559;28;19924;-87
2021/09/28 02:58:37;;;;;;;;;;;7.80;99.90;;;;;;5014408;28;19910;-87
2021/09/28 03:01:03;;;;;;;;;;;7.80;99.90;;;;;;5014804;28;20363;-87
2021/09/28 03:03:28;;;;;;;;;;;7.80;99.90;;;;;;5014475;28;19917;-87
2021/09/28 03:05:54;;;;;;;;;;;7.80;99.90;;;;;;5014468;28;20009;-87
2021/09/28 03:08:19;;;;;;;;;;;7.70;99.90;;;;;;5014184;28;19959;-87
2021/09/28 03:10:45;;;;;;;;;;;7.70;99.90;;;;;;5014835;28;20391;-87
2021/09/28 03:13:11;;;;;;;;;;;7.70;99.90;;;;;;5014338;28;20372;-86
2021/09/28 03:15:36;;;;;;;;;;;7.70;99.90;;;;;;5020757;23;19933;-84
2021/09/28 03:18:02;;;;;;;;;;;7.60;99.90;;;;;;4993872;28;20053;-85
2021/09/28 03:20:28;;;;;;;;;;;7.70;99.90;;;;;;4993850;28;20059;-84
2021/09/28 03:22:54;;;;;;;;;;;7.60;99.90;;;;;;4995268;28;19980;-84
2021/09/28 03:25:19;;;;;;;;;;;7.60;99.90;;;;;;4993676;28;19937;-84
2021/09/28 03:27:45;;;;;;;;;;;7.60;99.90;;;;;;4993540;28;20291;-84
2021/09/28 03:30:11;;;;;;;;;;;7.60;99.90;;;;;;4993818;28;19910;-84
2021/09/28 03:32:43;;;;;;;;;;;7.60;99.90;;;;;;4992806;28;20426;-84
2021/09/28 03:35:10;;;;;;;;;;;7.50;99.90;;;;;;4993427;28;19956;-84
2021/09/28 03:37:37;;;;;;;;;;;7.50;99.90;;;;;;4993328;28;19914;-84
2021/09/28 03:40:03;;;;;;;;;;;7.50;99.90;;;;;;4993318;28;19917;-85
2021/09/28 03:42:28;;;;;;;;;;;7.50;99.90;;;;;;4993235;28;19914;-85
2021/09/28 03:44:54;;;;;;;;;;;7.50;99.90;;;;;;4993389;28;20371;-84
2021/09/28 03:47:20;;;;;;;;;;;7.50;99.90;;;;;;4993642;28;19914;-83
2021/09/28 03:49:48;;;;;;;;;;;7.50;99.90;;;;;;4994724;28;19914;-84
2021/09/28 03:52:14;;;;;;;;;;;7.50;99.90;;;;;;4993354;28;19965;-84
2021/09/28 03:54:40;;;;;;;;;;;7.40;99.90;;;;;;4993266;28;19937;-85
2021/09/28 03:57:05;;;;;;;;;;;7.40;99.90;;;;;;4993437;28;19952;-86
2021/09/28 03:59:31;;;;;;;;;;;7.40;99.90;;;;;;4994431;28;19914;-86
2021/09/28 04:01:56;;;;;;;;;;;7.40;99.90;;;;;;4993169;28;19980;-85
2021/09/28 04:04:22;;;;;;;;;;;7.40;99.90;;;;;;4993054;28;19920;-86
2021/09/28 04:06:47;;;;;;;;;;;7.40;99.90;;;;;;4993340;28;19914;-86
2021/09/28 04:09:13;;;;;;;;;;;7.40;99.90;;;;;;4993004;28;19918;-86
2021/09/28 04:11:39;;;;;;;;;;;7.40;99.90;;;;;;4994414;28;19929;-86
2021/09/28 04:14:06;;;;;;;;;;;7.40;99.90;;;;;;4992982;28;19920;-85
2021/09/28 04:16:32;;;;;;;;;;;7.50;99.90;;;;;;4992696;28;19925;-86
2021/09/28 04:18:57;;;;;;;;;;;7.50;99.90;;;;;;4992860;28;19960;-86
2021/09/28 04:21:24;;;;;;;;;;;7.50;99.90;;;;;;4994811;28;19922;-85
2021/09/28 04:23:51;;;;;;;;;;;7.60;99.90;;;;;;4992886;28;19910;-86
2021/09/28 04:26:17;;;;;;;;;;;7.90;99.90;;;;;;4993024;28;19918;-86
2021/09/28 04:28:43;;;;;;;;;;;8.30;99.90;;;;;;4992863;28;19914;-86
2021/09/28 04:31:12;;;;;;;;;;;8.50;99.90;;;;;;4991314;28;20327;-87
2021/09/28 04:33:38;;;;;;;;;;;8.60;99.90;;;;;;4991850;28;19926;-85
2021/09/28 04:36:04;;;;;;;;;;;8.50;99.90;;;;;;4977801;28;20427;-88
2021/09/28 04:38:29;;;;;;;;;;;8.50;99.90;;;;;;4977060;28;19914;-86
2021/09/28 04:40:55;;;;;;;;;;;8.60;99.90;;;;;;4994789;28;20045;-86
2021/09/28 04:43:21;;;;;;;;;;;8.60;99.90;;;;;;4994005;28;19921;-85
2021/09/28 04:45:46;;;;;;;;;;;8.70;99.90;;;;;;4996237;28;20402;-87
2021/09/28 04:48:12;;;;;;;;;;;8.70;99.90;;;;;;4997585;28;20371;-85
2021/09/28 04:50:37;;;;;;;;;;;8.80;99.90;;;;;;4996134;28;19921;-88
2021/09/28 04:53:03;;;;;;;;;;;9.10;99.90;;;;;;4996437;28;19918;-86
2021/09/28 04:55:29;;;;;;;;;;;9.50;99.90;;;;;;4996432;28;19988;-85
2021/09/28 04:57:54;;;;;;;;;;;9.70;99.90;;;;;;4995692;28;19961;-85
2021/09/28 05:00:23;;;;;;;;;;;9.90;99.90;;;;;;4996132;28;20368;-87
2021/09/28 05:02:50;;;;;;;;;;;10.00;99.90;;;;;;4996712;28;19917;-84
2021/09/28 05:05:15;;;;;;;;;;;9.90;99.90;;;;;;4995579;28;19956;-86
2021/09/28 05:07:41;;;;;;;;;;;9.90;99.90;;;;;;4996279;28;20376;-85
2021/09/28 05:10:23;;;;;;;;;;;9.90;99.90;;;;;;4997332;28;19937;-84
2021/09/28 05:12:54;;;;;;;;;;;9.90;99.90;;;;;;5004124;28;19918;-86
2021/09/28 05:15:20;;;;;;;;;;;10.00;99.90;;;;;;4994148;28;20296;-87
2021/09/28 05:18:18;;;;;;;;;;;10.10;99.90;;;;;;4998769;28;19905;-87
2021/09/28 05:21:27;;;;;;;;;;;10.10;99.90;;;;;;4990700;28;19914;-87
2021/09/28 05:27:21;;;;;;;;;;;;;;;;;;;;;
2021/09/28 05:29:50;;;;;;;;;;;10.40;99.90;;;;;;4986044;28;20352;-85
2021/09/28 05:32:40;;;;;;;;;;;;;;;;;;;;;
2021/09/28 05:35:09;;;;;;;;;;;10.70;99.90;;;;;;4975734;28;19910;-88
2021/09/28 05:37:37;;;;;;;;;;;10.90;99.90;;;;;;4973119;28;19925;-87
2021/09/28 05:40:06;;;;;;;;;;;11.10;99.90;;;;;;4975563;28;20518;-87
2021/09/28 05:42:33;;;;;;;;;;;11.30;99.90;;;;;;4974343;28;20289;-86
2021/09/28 05:45:07;;;;;;;;;;;11.50;99.90;;;;;;4978971;28;20276;-86
2021/09/28 05:47:33;;;;;;;;;;;11.60;99.90;;;;;;4975424;28;19926;-85
2021/09/28 05:50:02;;;;;;;;;;;11.70;99.90;;;;;;4980116;28;20456;-86
2021/09/28 05:52:35;;;;;;;;;;;11.80;99.90;;;;;;4980969;28;19929;-86
2021/09/28 05:55:09;;;;;;;;;;;11.90;98.60;;;;;;4979557;28;19918;-87
2021/09/28 05:57:44;;;;;;;;;;;12.00;98.00;;;;;;4976727;28;19914;-86
2021/09/28 06:00:10;;;;;;;;;;;12.00;97.20;;;;;;4979196;28;19917;-86
2021/09/28 06:02:36;;;;;;;;;;;12.10;97.20;;;;;;4981305;28;19960;-86
2021/09/28 06:05:02;;;;;;;;;;;12.10;96.90;;;;;;4979990;28;20340;-86
2021/09/28 06:07:29;;;;;;;;;;;12.20;96.50;;;;;;4981558;28;20293;-86
2021/09/28 06:09:57;;;;;;;;;;;12.30;95.90;;;;;;4990875;28;19910;-84
2021/09/28 06:12:28;;;;;;;;;;;12.40;95.60;;;;;;4998439;28;19926;-85
2021/09/28 06:14:59;;;;;;;;;;;12.40;94.90;;;;;;4997532;28;19933;-84
2021/09/28 06:26:22;;;;;;;;;;;;;;;;;;;;;
2021/09/28 06:28:48;;;;;;;;;;;12.70;92.90;;;;;;5026515;28;19972;-85
2021/09/28 06:31:14;;;;;;;;;;;12.70;92.60;;;;;;4997702;28;19968;-87
2021/09/28 06:33:43;;;;;;;;;;;12.80;92.30;;;;;;4994072;28;19909;-85
2021/09/28 06:36:09;;;;;;;;;;;12.80;91.60;;;;;;4998244;28;19913;-86
2021/09/28 06:38:40;;;;;;;;;;;12.80;91.80;;;;;;5004274;28;19964;-84
2021/09/28 06:41:06;;;;;;;;;;;12.80;91.50;;;;;;5020297;28;20004;-86
2021/09/28 06:43:32;;;;;;;;;;;12.70;91.70;;;;;;4995135;28;19999;-85
2021/09/28 06:45:59;;;;;;;;;;;12.70;91.50;;;;;;4995391;28;19940;-85
2021/09/28 06:48:25;;;;;;;;;;;12.80;91.90;;;;;;4994336;28;19921;-86
2021/09/28 06:50:50;;;;;;;;;;;12.80;91.50;;;;;;4996155;28;19929;-85
2021/09/28 06:53:16;;;;;;;;;;;12.80;91.30;;;;;;5013045;28;20379;-85
2021/09/28 06:55:42;;;;;;;;;;;12.90;91.60;;;;;;4997198;28;19913;-86
2021/09/28 06:58:08;;;;;;;;;;;12.90;90.80;;;;;;5012608;28;19942;-86
2021/09/28 07:00:36;;;;;;;;;;;12.90;91.00;;;;;;4996127;28;20364;-85
2021/09/28 07:03:05;;;;;;;;;;;13.00;91.10;;;;;;4997974;28;19980;-87
2021/09/28 07:05:31;;;;;;;;;;;13.00;90.70;;;;;;5000958;28;19914;-85
2021/09/28 07:07:56;;;;;;;;;;;13.10;90.60;;;;;;4996470;28;20471;-86
2021/09/28 07:10:22;;;;;;;;;;;13.20;90.20;;;;;;4998940;28;19913;-84
2021/09/28 07:12:59;;;;;;;;;;;13.30;89.80;;;;;;5002111;28;19917;-87
2021/09/28 07:15:27;;;;;;;;;;;13.40;88.90;;;;;;4996415;28;19964;-86
2021/09/28 07:18:01;;;;;;;;;;;13.50;88.40;;;;;;4994676;28;19925;-87
2021/09/28 07:20:27;;;;;;;;;;;13.50;88.30;;;;;;4996728;28;19914;-86
2021/09/28 07:22:58;;;;;;;;;;;13.50;86.70;;;;;;4982594;28;19929;-85
2021/09/28 07:25:29;;;;;;;;;;;13.50;86.80;;;;;;4983571;28;19942;-84
2021/09/28 07:27:58;;;;;;;;;;;13.60;86.30;;;;;;4970132;28;19961;-85
2021/09/28 07:30:24;;;;;;;;;;;13.60;87.30;;;;;;4993762;28;19914;-87
2021/09/28 07:32:50;;;;;;;;;;;13.70;86.70;;;;;;5027593;28;19921;-87
2021/09/28 07:35:16;;;;;;;;;;;13.90;86.70;;;;;;4990270;28;19916;-84
2021/09/28 07:37:43;;;;;;;;;;;13.90;86.50;;;;;;5003986;28;20008;-82
2021/09/28 07:40:09;;;;;;;;;;;14.00;84.20;;;;;;5003256;28;19951;-85
2021/09/28 07:42:35;;;;;;;;;;;14.00;85.90;;;;;;5005385;28;19936;-86
2021/09/28 07:45:04;;;;;;;;;;;14.10;84.60;;;;;;5017575;28;20283;-86
2021/09/28 07:47:30;;;;;;;;;;;14.20;86.10;;;;;;5015512;28;20019;-86
2021/09/28 07:49:56;;;;;;;;;;;14.20;83.90;;;;;;5011106;28;19913;-87
2021/09/28 07:52:22;;;;;;;;;;;14.20;85.20;;;;;;5007131;28;19933;-85
2021/09/28 07:54:48;;;;;;;;;;;14.30;84.60;;;;;;4997772;28;19913;-84
2021/09/28 07:57:14;;;;;;;;;;;14.40;83.30;;;;;;4991043;28;19973;-84
2021/09/28 07:59:39;;;;;;;;;;;14.50;83.40;;;;;;4989925;28;19919;-89
2021/09/28 08:02:11;;;;;;;;;;;14.60;83.80;;;;;;5004203;28;19925;-86
2021/09/28 08:04:46;;;;;;;;;;;14.60;80.80;;;;;;5003685;28;19940;-86
2021/09/28 08:07:17;;;;;;;;;;;14.60;80.90;;;;;;4991915;28;19992;-86
2021/09/28 08:09:43;;;;;;;;;;;14.60;81.10;;;;;;4992175;28;19920;-84
2021/09/28 08:12:10;;;;;;;;;;;14.60;80.00;;;;;;5010011;28;19935;-89
2021/09/28 08:14:37;;;;;;;;;;;14.50;81.10;;;;;;4994959;28;19927;-85
2021/09/28 08:17:05;;;;;;;;;;;14.50;80.90;;;;;;4995186;28;20027;-86
2021/09/28 08:19:39;;;;;;;;;;;14.50;81.90;;;;;;4994578;28;19914;-85
2021/09/28 08:22:08;;;;;;;;;;;14.60;81.80;;;;;;4988255;23;20064;-79
2021/09/28 08:24:40;;;;;;;;;;;14.60;80.60;;;;;;4982804;28;19922;-80
2021/09/28 08:29:51;;;;;;;;;;;14.80;80.00;;;;;;5028242;28;20009;-77
2021/09/28 08:32:16;;;;;;;;;;;14.80;79.50;;;;;;5010847;28;19929;-76
2021/09/28 08:34:42;;;;;;;;;;;14.90;79.70;;;;;;5029914;28;19921;-74
2021/09/28 08:37:07;;;;;;;;;;;15.00;79.50;;;;;;5028859;28;19932;-75
2021/09/28 08:39:33;;;;;;;;;;;15.10;80.50;;;;;;5031021;28;19913;-76
2021/09/28 08:41:58;;;;;;;;;;;15.20;80.10;;;;;;5013689;28;20370;-78
2021/09/28 08:44:24;;;;;;;;;;;15.40;79.20;;;;;;5030527;28;19917;-79
2021/09/28 08:46:50;;;;;;;;;;;15.60;78.60;;;;;;5028233;28;20339;-77
2021/09/28 08:49:18;;;;;;;;;;;15.70;77.80;;;;;;5012678;28;20439;-78
2021/09/28 08:51:44;;;;;;;;;;;15.90;77.00;;;;;;5031443;28;19928;-79
2021/09/28 08:54:09;;;;;;;;;;;16.10;76.40;;;;;;5014183;28;19914;-77
2021/09/28 08:56:35;;;;;;;;;;;16.20;78.80;;;;;;5030312;28;20079;-75
2021/09/28 08:59:02;;;;;;;;;;;16.30;76.30;;;;;;5030580;28;19936;-84
2021/09/28 09:01:31;;;;;;;;;;;16.40;77.80;;;;;;5030144;28;19920;-77
2021/09/28 09:04:12;;;;;;;;;;;16.50;76.50;;;;;;5012301;28;19929;-75
2021/09/28 09:06:38;;;;;;;;;;;16.90;76.90;;;;;;5029635;28;19951;-77
2021/09/28 09:09:04;;;;;;;;;;;17.30;75.30;;;;;;5028285;28;19949;-76
2021/09/28 09:11:37;;;;;;;;;;;17.60;75.00;;;;;;5012494;28;20004;-76
2021/09/28 09:14:15;;;;;;;;;;;17.80;72.80;;;;;;5011709;28;19913;-84
2021/09/28 09:16:43;;;;;;;;;;;17.90;70.70;;;;;;5042946;23;19945;-73
2021/09/28 09:19:17;;;;;;;;;;;17.90;70.90;;;;;;4990254;28;19909;-73
2021/09/28 09:21:53;;;;;;;;;;;17.90;70.10;;;;;;5018216;28;20004;-74
2021/09/28 09:24:37;;;;;;;;;;;18.00;70.40;;;;;;5029743;28;20085;-77
2021/09/28 09:27:04;;;;;;;;;;;18.00;69.10;;;;;;5010024;28;20020;-76
2021/09/28 09:29:31;;;;;;;;;;;18.10;69.80;;;;;;5007726;28;20008;-72
2021/09/28 09:31:57;;;;;;;;;;;18.20;70.10;;;;;;5012034;28;20303;-72
2021/09/28 09:34:22;;;;;;;;;;;18.40;69.80;;;;;;5014648;28;19913;-72
2021/09/28 09:36:58;;;;;;;;;;;18.70;69.90;;;;;;5034731;28;20414;-73
2021/09/28 09:39:28;;;;;;;;;;;19.30;70.90;;;;;;5034869;28;20012;-74
2021/09/28 09:42:07;;;;;;;;;;;20.10;68.10;;;;;;5035114;28;19920;-73
2021/09/28 09:44:32;;;;;;;;;;;20.90;68.40;;;;;;5034951;28;19913;-72
2021/09/28 09:47:01;;;;;;;;;;;21.50;66.00;;;;;;5035074;28;19963;-75
2021/09/28 09:49:30;;;;;;;;;;;22.00;65.00;;;;;;5000967;28;19924;-74
2021/09/28 09:52:03;;;;;;;;;;;22.30;61.60;;;;;;5032089;28;20024;-75
2021/09/28 09:54:30;;;;;;;;;;;22.60;59.60;;;;;;5016131;28;19936;-75
2021/09/28 09:56:56;;;;;;;;;;;22.80;59.60;;;;;;5016547;28;19923;-74
2021/09/28 09:59:22;;;;;;;;;;;22.80;58.50;;;;;;5034727;28;19913;-77
2021/09/28 10:01:48;;;;;;;;;;;22.70;58.00;;;;;;5015696;28;19913;-76
2021/09/28 10:04:14;;;;;;;;;;;22.80;58.60;;;;;;5032114;28;19948;-75
2021/09/28 10:06:40;;;;;;;;;;;23.00;56.80;;;;;;5030939;28;19919;-75
2021/09/28 10:09:07;;;;;;;;;;;23.20;58.50;;;;;;5027169;28;20012;-76
2021/09/28 10:11:36;;;;;;;;;;;23.40;55.00;;;;;;5012468;28;19921;-76
2021/09/28 10:14:02;;;;;;;;;;;23.70;57.70;;;;;;5033438;28;19920;-76
2021/09/28 10:16:43;;;;;;;;;;;23.90;55.50;;;;;;5032177;23;19920;-73
2021/09/28 10:19:28;;;;;;;;;;;24.10;54.30;;;;;;4993858;28;19971;-76
2021/09/28 10:21:57;;;;;;;;;;;24.30;53.30;;;;;;4993095;28;20485;-78
2021/09/28 10:24:33;;;;;;;;;;;24.60;55.50;;;;;;5011887;28;19913;-75
2021/09/28 10:26:59;;;;;;;;;;;24.80;55.00;;;;;;4977449;28;19948;-77
2021/09/28 10:29:37;;;;;;;;;;;25.10;55.70;;;;;;4993068;28;20287;-79
2021/09/28 10:32:23;;;;;;;;;;;25.20;56.80;;;;;;4992640;28;20326;-77
2021/09/28 10:35:12;;;;;;;;;;;25.30;54.00;;;;;;4993379;28;19917;-76
2021/09/28 10:37:41;;;;;;;;;;;26.00;53.80;;;;;;4994107;28;19968;-79
2021/09/28 10:40:07;;;;;;;;;;;26.60;53.50;;;;;;5012222;28;20390;-78
2021/09/28 10:42:49;;;;;;;;;;;27.00;51.10;;;;;;4996330;28;19953;-81
2021/09/28 10:45:21;;;;;;;;;;;27.20;51.50;;;;;;4995818;28;19913;-79
2021/09/28 10:47:52;;;;;;;;;;;27.70;51.90;;;;;;4995394;28;20020;-80
2021/09/28 10:50:26;;;;;;;;;;;28.20;48.90;;;;;;4995082;28;19914;-79
2021/09/28 10:52:52;;;;;;;;;;;29.20;46.50;;;;;;5013768;28;19921;-83
2021/09/28 10:55:17;;;;;;;;;;;30.10;49.50;;;;;;5012891;28;19944;-78
2021/09/28 11:00:26;;;;;;;;;;;30.90;46.20;;;;;;5010977;28;19936;-81
2021/09/28 11:02:53;;;;;;;;;;;31.60;44.10;;;;;;5012751;28;19921;-77
2021/09/28 11:05:31;;;;;;;;;;;32.30;43.90;;;;;;5013143;28;19914;-79
2021/09/28 11:07:58;;;;;;;;;;;32.60;44.70;;;;;;5010518;28;19913;-80
2021/09/28 11:10:24;;;;;;;;;;;32.80;41.40;;;;;;4992358;28;19960;-78
2021/09/28 11:12:52;;;;;;;;;;;33.10;45.50;;;;;;5007293;28;20328;-74
2021/09/28 11:15:20;;;;;;;;;;;33.20;41.30;;;;;;4991559;28;19918;-76
2021/09/28 11:18:22;;;;;;;;;;;33.50;40.10;;;;;;5023557;22;20340;-78
2021/09/28 11:20:47;;;;;;;;;;;34.00;40.90;;;;;;4950414;29;19926;-74
2021/09/28 11:23:13;;;;;;;;;;;34.60;38.30;;;;;;4999515;28;19918;-76
2021/09/28 11:25:39;;;;;;;;;;;35.10;40.90;;;;;;5010023;28;19913;-77
2021/09/28 11:28:06;;;;;;;;;;;35.40;38.70;;;;;;5012416;28;19949;-78
2021/09/28 11:30:34;;;;;;;;;;;35.50;38.40;;;;;;4991550;28;19918;-83
2021/09/28 11:33:03;;;;;;;;;;;35.20;39.10;;;;;;4991334;28;19917;-86
2021/09/28 11:35:29;;;;;;;;;;;34.90;38.10;;;;;;5010415;28;19914;-74
2021/09/28 11:37:56;;;;;;;;;;;34.80;40.90;;;;;;4993639;28;19969;-77
2021/09/28 11:40:21;;;;;;;;;;;34.60;38.60;;;;;;5012185;28;19917;-76
2021/09/28 11:42:47;;;;;;;;;;;34.40;36.80;;;;;;5011819;28;20071;-80
2021/09/28 11:45:12;;;;;;;;;;;34.60;41.20;;;;;;4993570;28;19913;-79
2021/09/28 11:47:41;;;;;;;;;;;34.70;40.00;;;;;;5010419;28;19918;-80
2021/09/28 11:50:06;;;;;;;;;;;35.00;39.40;;;;;;5013587;28;20400;-76
2021/09/28 11:52:36;;;;;;;;;;;35.20;35.90;;;;;;5014025;28;19921;-76
2021/09/28 11:55:02;;;;;;;;;;;35.30;37.20;;;;;;5012544;28;20368;-79
2021/09/28 11:57:29;;;;;;;;;;;34.80;35.70;;;;;;4993489;28;19917;-78
2021/09/28 11:59:55;;;;;;;;;;;34.00;39.00;;;;;;5012981;28;19947;-81
2021/09/28 12:02:22;;;;;;;;;;;32.80;36.10;;;;;;5010919;28;19972;-76
2021/09/28 12:10:12;;;;;;;;;;;28.40;41.20;;;;;;5006912;28;20367;-76
2021/09/28 12:12:41;;;;;;;;;;;26.90;42.20;;;;;;5008432;28;20538;-75
2021/09/28 12:15:07;;;;;;;;;;;25.50;44.40;;;;;;5005892;28;19913;-77
2021/09/28 12:17:33;;;;;;;;;;;24.50;46.30;;;;;;5004700;23;20163;-81
2021/09/28 12:20:04;;;;;;;;;;;23.50;47.50;;;;;;5009906;28;19919;-84
2021/09/28 12:22:33;;;;;;;;;;;22.70;48.90;;;;;;5011930;28;19953;-85
2021/09/28 12:25:00;;;;;;;;;;;22.10;50.10;;;;;;5008292;28;19910;-82
2021/09/28 12:27:27;;;;;;;;;;;21.40;51.30;;;;;;5009395;28;19937;-88
2021/09/28 12:29:57;;;;;;;;;;;20.50;54.90;;;;;;4993266;28;19916;-89
2021/09/28 12:32:22;;;;;;;;;;;19.50;56.80;;;;;;4992167;28;19926;-90
2021/09/28 12:34:48;;;;;;;;;;;18.60;59.60;;;;;;4993681;28;19909;-86
2021/09/28 12:37:13;;;;;;;;;;;17.80;60.50;;;;;;4993366;28;20378;-89
2021/09/28 12:39:39;;;;;;;;;;;17.30;62.70;;;;;;5009619;28;19959;-91
2021/09/28 12:42:07;;;;;;;;;;;16.80;64.10;;;;;;4992463;28;19972;-85
2021/09/28 12:44:33;;;;;;;;;;;16.40;64.00;;;;;;5011364;28;19910;-85
2021/09/28 12:46:58;;;;;;;;;;;16.10;64.60;;;;;;4993299;28;19964;-86
2021/09/28 12:49:29;;;;;;;;;;;15.80;67.60;;;;;;4995440;28;19909;-87
2021/09/28 12:51:54;;;;;;;;;;;15.70;65.60;;;;;;4995300;28;19932;-86
2021/09/28 12:54:20;;;;;;;;;;;15.50;69.80;;;;;;5013226;28;19909;-86
2021/09/28 12:56:46;;;;;;;;;;;15.40;69.20;;;;;;5012218;28;19924;-80
2021/09/28 12:59:11;;;;;;;;;;;15.20;68.10;;;;;;5008853;28;19914;-81
2021/09/28 13:01:47;;;;;;;;;;;14.90;68.30;;;;;;4991431;28;19933;-85
2021/09/28 13:04:16;;;;;;;;;;;14.80;71.30;;;;;;4995412;28;20020;-81
2021/09/28 13:06:44;;;;;;;;;;;14.70;70.70;;;;;;4994742;28;19921;-74
2021/09/28 13:09:10;;;;;;;;;;;14.70;74.60;;;;;;5013369;28;19947;-74
2021/09/28 13:11:36;;;;;;;;;;;14.70;74.60;;;;;;5014678;28;19925;-76
2021/09/28 13:14:01;;;;;;;;;;;14.70;74.40;;;;;;4996354;28;19914;-73
2021/09/28 13:19:02;;;;;;;;;;;14.60;72.10;;;;;;5033587;28;20029;-72
2021/09/28 13:21:27;;;;;;;;;;;14.70;73.00;;;;;;5035818;28;20004;-71
2021/09/28 13:23:53;;;;;;;;;;;14.70;71.90;;;;;;5035877;28;19915;-73
2021/09/28 13:26:19;;;;;;;;;;;14.60;70.80;;;;;;5036237;28;19963;-72
2021/09/28 13:28:45;;;;;;;;;;;14.60;71.10;;;;;;5034404;28;20326;-73
2021/09/28 13:31:10;;;;;;;;;;;14.60;72.50;;;;;;5033287;28;19917;-72
2021/09/28 13:33:36;;;;;;;;;;;14.60;72.80;;;;;;5033828;28;20105;-72
2021/09/28 13:36:02;;;;;;;;;;;14.50;73.70;;;;;;5035926;28;20386;-77
2021/09/28 13:38:27;;;;;;;;;;;14.60;75.60;;;;;;5018308;28;19917;-75
2021/09/28 13:40:53;;;;;;;;;;;14.60;73.40;;;;;;5033935;28;19910;-76
2021/09/28 13:43:19;;;;;;;;;;;14.50;75.20;;;;;;5031566;28;19917;-76
2021/09/28 13:45:44;;;;;;;;;;;14.40;75.80;;;;;;5034322;28;19955;-76
2021/09/28 13:48:11;;;;;;;;;;;14.40;75.50;;;;;;5017975;28;19917;-75
2021/09/28 13:50:38;;;;;;;;;;;14.30;73.40;;;;;;5036004;28;20360;-75
2021/09/28 13:53:05;;;;;;;;;;;14.20;72.70;;;;;;5018302;28;19943;-75
2021/09/28 13:55:31;;;;;;;;;;;14.20;76.00;;;;;;5016044;28;19917;-75
2021/09/28 13:57:56;;;;;;;;;;;14.10;74.70;;;;;;5034602;28;19921;-75
2021/09/28 14:00:22;;;;;;;;;;;14.10;74.70;;;;;;5018516;28;19909;-83
2021/09/28 14:02:47;;;;;;;;;;;14.20;74.10;;;;;;5035018;28;20291;-82
2021/09/28 14:05:13;;;;;;;;;;;14.20;75.10;;;;;;5035824;28;19909;-82
2021/09/28 14:07:39;;;;;;;;;;;14.20;74.60;;;;;;5017780;28;19960;-80
2021/09/28 14:10:05;;;;;;;;;;;14.20;74.60;;;;;;5015395;28;20335;-83
2021/09/28 14:12:31;;;;;;;;;;;14.20;73.30;;;;;;5014340;28;19948;-84
2021/09/28 14:14:57;;;;;;;;;;;14.20;71.00;;;;;;5032998;28;19909;-83
2021/09/28 14:17:22;;;;;;;;;;;14.10;71.40;;;;;;5019406;23;19972;-77
2021/09/28 14:19:48;;;;;;;;;;;14.00;72.50;;;;;;5013637;28;19916;-77
2021/09/28 14:22:13;;;;;;;;;;;13.80;72.80;;;;;;5013953;28;19924;-83
2021/09/28 14:24:39;;;;;;;;;;;13.70;74.70;;;;;;5015355;28;20296;-81
2021/09/28 14:27:05;;;;;;;;;;;13.60;73.40;;;;;;4998189;28;19967;-82
2021/09/28 14:29:30;;;;;;;;;;;13.50;73.30;;;;;;4996676;28;19921;-72
2021/09/28 14:31:56;;;;;;;;;;;13.40;74.30;;;;;;5015124;28;19975;-72
2021/09/28 14:34:22;;;;;;;;;;;13.30;74.20;;;;;;5015120;28;19914;-80
2021/09/28 14:36:47;;;;;;;;;;;13.20;75.20;;;;;;4996768;28;19920;-73
2021/09/28 14:39:13;;;;;;;;;;;13.10;75.60;;;;;;5015085;28;19913;-73
2021/09/28 14:41:38;;;;;;;;;;;13.00;76.10;;;;;;5015119;28;19921;-73
2021/09/28 14:44:04;;;;;;;;;;;13.00;76.20;;;;;;5014994;28;19933;-71
2021/09/28 14:46:30;;;;;;;;;;;12.90;74.80;;;;;;5014896;28;19914;-80
2021/09/28 14:48:56;;;;;;;;;;;12.90;74.00;;;;;;4997491;28;20010;-79
2021/09/28 14:51:23;;;;;;;;;;;12.80;73.70;;;;;;4997441;28;19961;-77